EIKY/KIR METAR and TAF weather

Enter ICAO airport designator
Station Type Date Time Source
EIKY METAR 2019/10/20 19:00 UTC NOAA

EIKY 201900Z 35005KT 320V030 9999 BKN047 09/05 Q1022


Station Type Date Time Source
EIKY Decoded METAR 2019/10/20 19:00 UTC NOAA

Station name not available
Oct 20, 2019 - 03:00 PM EDT / 2019.10.20 1900 UTC
Wind: from the N (350 degrees) at 6 MPH (5 KT) (direction variable):0
Visibility: greater than 7 mile(s):0
Sky conditions: mostly cloudy
Temperature: 48 F (9 C)
Dew Point: 41 F (5 C)
Relative Humidity: 75%
Pressure (altimeter): 30.18 in. Hg (1022 hPa)
ob: EIKY 201900Z 35005KT 320V030 9999 BKN047 09/05 Q1022
cycle: 19

Station Type Date Time Source
EIKY TAF UTC NOAA

Error!

Example: see airport list